Time;durP1;ratioP1;P1;durP2;ratioP2;P2;SDS_P1;SDS_P2;PMS_P1;PMS_P2;Temp;Humidity;BMP_temperature;BMP_pressure;BME280_temperature;BME280_humidity;BME280_pressure;Samples;Min_cycle;Max_cycle;Signal;HPM_P1;HPM_P2
2021/09/20 00:01:29;;;;;;;5.63;2.92;;;;;;;10.28;100.00;101268.69;5008167;28;20042;-84
2021/09/20 00:06:48;;;;;;;6.38;3.83;;;;;;;10.25;100.00;101268.72;4984357;28;20038;-81
2021/09/20 00:09:17;;;;;;;4.70;2.72;;;;;;;10.25;100.00;101274.88;4990013;28;20050;-81
2021/09/20 00:11:44;;;;;;;3.85;2.72;;;;;;;10.22;100.00;101279.28;4974074;28;20174;-82
2021/09/20 00:14:11;;;;;;;5.47;3.08;;;;;;;10.19;100.00;101280.19;4958839;28;20042;-81
2021/09/20 00:16:38;;;;;;;4.72;2.75;;;;;;;10.16;100.00;101283.72;4958110;28;20042;-82
2021/09/20 00:19:05;;;;;;;3.97;2.08;;;;;;;10.14;100.00;101279.34;4964438;28;20054;-80
2021/09/20 00:21:31;;;;;;;3.95;2.58;;;;;;;10.18;100.00;101273.16;4956403;28;20491;-81
2021/09/20 00:23:58;;;;;;;4.28;2.42;;;;;;;10.23;100.00;101283.69;4978732;28;20046;-81
2021/09/20 00:26:25;;;;;;;5.38;2.90;;;;;;;10.20;100.00;101281.94;4964840;28;20046;-80
2021/09/20 00:28:52;;;;;;;3.70;2.70;;;;;;;10.16;100.00;101280.19;4960024;28;20042;-82
2021/09/20 00:31:18;;;;;;;4.38;2.58;;;;;;;10.10;100.00;101286.44;4973191;28;20575;-81
2021/09/20 00:33:45;;;;;;;6.45;3.00;;;;;;;10.16;100.00;101285.47;4948570;28;20054;-80
2021/09/20 00:36:12;;;;;;;3.88;2.50;;;;;;;10.12;100.00;101284.66;4976092;28;20046;-81
2021/09/20 00:38:38;;;;;;;3.83;2.70;;;;;;;10.10;100.00;101286.44;4946358;28;20043;-82
2021/09/20 00:41:05;;;;;;;4.38;2.40;;;;;;;10.12;100.00;101289.06;4977971;28;20050;-82
2021/09/20 00:43:32;;;;;;;4.53;2.40;;;;;;;10.15;100.00;101287.25;4979520;28;20487;-81
2021/09/20 00:45:59;;;;;;;3.70;2.30;;;;;;;10.15;100.00;101283.72;4948781;28;20054;-82
2021/09/20 00:48:25;;;;;;;3.58;2.38;;;;;;;10.10;100.00;101281.16;4955232;28;20042;-80
2021/09/20 00:50:52;;;;;;;4.10;2.17;;;;;;;10.15;100.00;101284.59;4969596;28;20038;-81
2021/09/20 00:53:19;;;;;;;4.53;2.28;;;;;;;10.12;100.00;101274.09;4971421;28;20042;-80
2021/09/20 00:55:45;;;;;;;3.10;2.40;;;;;;;10.15;100.00;101281.97;4944491;28;20053;-82
2021/09/20 00:58:13;;;;;;;5.05;2.60;;;;;;;10.08;100.00;101271.47;4964732;28;20086;-81
2021/09/20 01:00:42;;;;;;;3.17;2.38;;;;;;;10.09;100.00;101267.97;4954623;28;20043;-81
2021/09/20 01:03:09;;;;;;;3.90;2.63;;;;;;;10.12;100.00;101268.81;4971683;28;20047;-82
2021/09/20 01:05:36;;;;;;;4.30;2.50;;;;;;;10.32;100.00;101271.28;4948968;28;20614;-81
2021/09/20 01:08:04;;;;;;;3.97;2.45;;;;;;;10.33;100.00;101285.34;4962768;28;20137;-82
2021/09/20 01:10:30;;;;;;;6.88;2.50;;;;;;;10.16;100.00;101280.19;4975816;28;20049;-80
2021/09/20 01:12:57;;;;;;;4.50;2.55;;;;;;;10.11;100.00;101279.38;4955297;28;20083;-80
2021/09/20 01:15:24;;;;;;;3.35;2.22;;;;;;;10.09;100.00;101278.53;4937149;28;20427;-81
2021/09/20 01:17:51;;;;;;;5.45;3.00;;;;;;;10.17;100.00;101281.94;4958574;28;20050;-80
2021/09/20 01:20:17;;;;;;;3.63;2.67;;;;;;;10.10;100.00;101277.63;4983985;28;20082;-82
2021/09/20 01:22:49;;;;;;;5.70;2.78;;;;;;;10.05;100.00;101277.66;4958878;28;20049;-80
2021/09/20 01:25:16;;;;;;;4.60;2.38;;;;;;;10.02;100.00;101276.81;4939163;28;20039;-81
2021/09/20 01:27:43;;;;;;;2.88;2.15;;;;;;;10.08;100.00;101284.66;4973071;28;20046;-80
2021/09/20 01:30:10;;;;;;;4.20;2.58;;;;;;;10.08;100.00;101282.03;4959435;28;20046;-81
2021/09/20 01:32:37;;;;;;;3.55;2.47;;;;;;;9.98;100.00;101286.50;4956095;28;20476;-81
2021/09/20 01:35:04;;;;;;;5.47;3.10;;;;;;;10.06;100.00;101281.19;4957434;28;20042;-80
2021/09/20 01:37:31;;;;;;;5.63;2.20;;;;;;;9.98;100.00;101286.50;4962080;28;20042;-80
2021/09/20 01:39:58;;;;;;;3.60;2.30;;;;;;;10.01;100.00;101289.16;4950670;28;20050;-80
2021/09/20 01:42:25;;;;;;;5.18;2.88;;;;;;;9.97;100.00;101292.69;4974464;28;20054;-80
2021/09/20 01:44:51;;;;;;;6.60;2.75;;;;;;;10.01;100.00;101286.50;4968060;28;20692;-80
2021/09/20 01:47:18;;;;;;;4.00;2.95;;;;;;;9.98;100.00;101286.50;4956479;28;20500;-81
2021/09/20 01:49:44;;;;;;;3.45;2.60;;;;;;;9.97;100.00;101279.50;4988140;28;20147;-81
2021/09/20 01:52:11;;;;;;;3.53;2.38;;;;;;;9.94;100.00;101279.53;4955787;28;20090;-82
2021/09/20 01:54:38;;;;;;;3.90;2.88;;;;;;;9.95;100.00;101289.19;4958261;28;20411;-81
2021/09/20 01:57:05;;;;;;;6.15;2.80;;;;;;;9.96;100.00;101285.66;4959542;28;20069;-82
2021/09/20 01:59:31;;;;;;;4.53;2.50;;;;;;;9.95;100.00;101285.69;4960666;28;20475;-81
2021/09/20 02:01:58;;;;;;;3.78;2.60;;;;;;;9.98;100.00;101283.88;4945532;28;20042;-81
2021/09/20 02:04:25;;;;;;;5.00;2.72;;;;;;;9.94;100.00;101281.28;4975424;28;20674;-81
2021/09/20 02:06:52;;;;;;;3.72;2.40;;;;;;;9.89;100.00;101289.22;4958021;28;20044;-80
2021/09/20 02:09:19;;;;;;;4.20;2.95;;;;;;;9.88;100.00;101287.47;4957068;28;20074;-80
2021/09/20 02:11:46;;;;;;;4.18;2.47;;;;;;;9.94;100.00;101290.09;4971720;28;20047;-80
2021/09/20 02:14:14;;;;;;;6.35;2.67;;;;;;;9.96;100.00;101287.44;4959045;28;20054;-82
2021/09/20 02:16:41;;;;;;;5.45;2.72;;;;;;;9.94;100.00;101289.22;4967847;28;20042;-80
2021/09/20 02:19:09;;;;;;;5.95;2.60;;;;;;;9.98;100.00;101286.50;4957517;28;20050;-81
2021/09/20 02:21:36;;;;;;;5.60;2.83;;;;;;;9.98;100.00;101288.28;4975773;28;20130;-80
2021/09/20 02:24:02;;;;;;;3.28;2.17;;;;;;;9.92;100.00;101285.69;4969174;28;20078;-81
2021/09/20 02:26:29;;;;;;;5.35;2.42;;;;;;;9.92;100.00;101285.69;4952058;28;20414;-80
2021/09/20 02:28:56;;;;;;;3.38;2.10;;;;;;;9.87;100.00;101281.31;4976783;28;20035;-82
2021/09/20 02:31:22;;;;;;;3.85;2.70;;;;;;;9.89;100.00;101283.94;4976257;28;20046;-81
2021/09/20 02:33:49;;;;;;;4.03;2.60;;;;;;;9.95;100.00;101285.69;4959117;28;20495;-80
2021/09/20 02:36:16;;;;;;;6.05;2.88;;;;;;;9.92;100.00;101280.41;4957491;28;20052;-82
2021/09/20 02:38:43;;;;;;;3.08;2.65;;;;;;;9.88;100.00;101276.94;4964795;28;20051;-80
2021/09/20 02:41:09;;;;;;;3.83;2.58;;;;;;;9.86;100.00;101276.06;4957559;28;20053;-81
2021/09/20 02:43:36;;;;;;;3.03;2.40;;;;;;;9.85;100.00;101275.19;4988971;28;20035;-81
2021/09/20 02:46:04;;;;;;;5.55;3.03;;;;;;;9.91;100.00;101279.53;4984107;28;20042;-80
2021/09/20 02:48:31;;;;;;;4.10;2.38;;;;;;;9.87;100.00;101277.81;4973873;28;20046;-80
2021/09/20 02:50:57;;;;;;;3.38;2.70;;;;;;;9.96;100.00;101279.50;4974113;28;20045;-81
2021/09/20 02:53:24;;;;;;;4.22;2.50;;;;;;;9.95;100.00;101285.69;4970447;28;20047;-80
2021/09/20 02:55:51;;;;;;;4.90;2.45;;;;;;;9.87;100.00;101280.44;4982057;28;20045;-80
2021/09/20 02:58:18;;;;;;;3.47;2.50;;;;;;;9.81;100.00;101276.09;4956798;28;20074;-81
2021/09/20 03:00:44;;;;;;;4.00;2.50;;;;;;;9.88;100.00;101284.84;4956385;28;20042;-81
2021/09/20 03:03:11;;;;;;;3.65;2.75;;;;;;;9.95;100.00;101285.69;4967933;28;20054;-80
2021/09/20 03:05:38;;;;;;;3.88;2.47;;;;;;;9.93;100.00;101287.47;4975691;28;20675;-81
2021/09/20 03:08:05;;;;;;;3.72;2.40;;;;;;;9.90;100.00;101284.81;4957933;28;20121;-81
2021/09/20 03:10:33;;;;;;;4.22;2.90;;;;;;;9.96;100.00;101288.31;4967899;28;20514;-80
2021/09/20 03:13:00;;;;;;;3.17;2.25;;;;;;;9.94;100.00;101283.94;4949154;28;20123;-80
2021/09/20 03:15:27;;;;;;;5.45;2.35;;;;;;;9.90;100.00;101285.69;4988588;28;20307;-80
2021/09/20 03:17:54;;;;;;;4.78;2.63;;;;;;;9.88;100.00;101285.72;4956445;28;20046;-81
2021/09/20 03:20:21;;;;;;;4.88;2.58;;;;;;;9.92;100.00;101285.69;4936450;28;20046;-82
2021/09/20 03:22:47;;;;;;;4.53;2.63;;;;;;;9.96;100.00;101290.94;4956236;28;20047;-81
2021/09/20 03:25:15;;;;;;;3.60;2.30;;;;;;;9.95;100.00;101286.56;4958121;28;20049;-81
2021/09/20 03:27:45;;;;;;;3.58;2.17;;;;;;;9.94;100.00;101286.56;4954993;28;20546;-82
2021/09/20 03:30:13;;;;;;;4.30;2.35;;;;;;;9.86;100.00;101282.22;4973535;28;20046;-81
2021/09/20 03:32:41;;;;;;;6.72;2.20;;;;;;;9.83;100.00;101282.22;4939726;28;20513;-81
2021/09/20 03:35:09;;;;;;;3.47;2.42;;;;;;;9.86;100.00;101286.63;4941082;28;20046;-81
2021/09/20 03:37:35;;;;;;;2.90;1.90;;;;;;;9.84;100.00;101285.78;4959554;28;20095;-81
2021/09/20 03:40:04;;;;;;;3.65;2.40;;;;;;;9.85;100.00;101285.75;4972413;28;20054;-81
2021/09/20 03:42:30;;;;;;;3.70;2.25;;;;;;;9.78;100.00;101291.97;4957579;28;20034;-81
2021/09/20 03:44:57;;;;;;;4.40;2.63;;;;;;;9.89;100.00;101297.16;4956589;28;20548;-81
2021/09/20 03:47:25;;;;;;;3.50;2.25;;;;;;;9.88;100.00;101291.00;4954895;28;20054;-81
2021/09/20 03:49:52;;;;;;;3.45;2.40;;;;;;;9.80;100.00;101295.44;4952162;28;20049;-81
2021/09/20 03:52:18;;;;;;;3.75;2.47;;;;;;;9.75;100.00;101289.34;4970806;28;20042;-80
2021/09/20 03:54:45;;;;;;;2.97;2.30;;;;;;;9.81;100.00;101296.31;4952616;28;20089;-81
2021/09/20 03:57:11;;;;;;;3.80;2.50;;;;;;;9.81;100.00;101291.06;4971939;28;20046;-82
2021/09/20 03:59:38;;;;;;;3.13;2.38;;;;;;;9.78;100.00;101293.72;4989174;28;20042;-81
2021/09/20 04:02:05;;;;;;;4.63;2.70;;;;;;;9.81;100.00;101289.28;4969188;28;20046;-81
2021/09/20 04:04:32;;;;;;;6.05;2.55;;;;;;;9.80;100.00;101291.94;4968049;28;20042;-81
2021/09/20 04:07:03;;;;;;;4.40;2.63;;;;;;;9.79;100.00;101295.47;4936241;28;20054;-81
2021/09/20 04:09:30;;;;;;;5.50;2.70;;;;;;;9.74;100.00;101297.25;4988730;28;20057;-80
2021/09/20 04:11:57;;;;;;;4.93;2.45;;;;;;;9.74;100.00;101298.13;4953698;28;20468;-81
2021/09/20 04:14:23;;;;;;;3.35;2.22;;;;;;;9.72;100.00;101302.53;4978253;28;23022;-80
2021/09/20 04:16:50;;;;;;;3.28;2.50;;;;;;;9.71;100.00;101306.06;4964107;28;20071;-81
2021/09/20 04:19:17;;;;;;;3.20;2.13;;;;;;;9.71;100.00;101302.56;4941698;28;20551;-81
2021/09/20 04:21:43;;;;;;;4.35;2.58;;;;;;;9.68;100.00;101305.22;4957230;28;20042;-81
2021/09/20 04:24:10;;;;;;;4.80;2.75;;;;;;;9.72;100.00;101299.03;4933107;28;20174;-81
2021/09/20 04:26:37;;;;;;;5.40;2.72;;;;;;;9.67;100.00;101301.72;4951411;28;20113;-81
2021/09/20 04:29:03;;;;;;;4.15;2.30;;;;;;;9.69;100.00;101306.97;4954976;28;20046;-81
2021/09/20 04:31:30;;;;;;;4.50;2.88;;;;;;;9.72;100.00;101299.91;4979526;28;20058;-81
2021/09/20 04:33:57;;;;;;;5.30;2.67;;;;;;;9.68;100.00;101306.09;4953182;28;20077;-81
2021/09/20 04:36:23;;;;;;;3.80;2.50;;;;;;;9.73;100.00;101311.34;4972707;28;20042;-81
2021/09/20 04:38:50;;;;;;;3.95;2.72;;;;;;;9.64;100.00;101317.53;4972464;28;20377;-81
2021/09/20 04:41:17;;;;;;;4.80;3.20;;;;;;;9.62;100.00;101316.69;4955057;28;20085;-81
2021/09/20 04:43:44;;;;;;;4.15;2.30;;;;;;;9.57;100.00;101316.69;4956465;28;20046;-81
2021/09/20 04:46:10;;;;;;;4.05;2.85;;;;;;;9.58;100.00;101318.47;4934967;28;20050;-83
2021/09/20 04:48:37;;;;;;;4.40;2.38;;;;;;;9.65;100.00;101323.69;4955211;28;20043;-81
2021/09/20 04:51:04;;;;;;;4.90;2.35;;;;;;;9.60;100.00;101331.66;4974406;28;20054;-80
2021/09/20 04:53:30;;;;;;;3.15;2.53;;;;;;;9.61;100.00;101329.91;4954899;28;20046;-81
2021/09/20 04:55:57;;;;;;;6.72;2.72;;;;;;;9.59;100.00;101324.63;4974139;28;20042;-81
2021/09/20 04:58:24;;;;;;;5.15;2.70;;;;;;;9.64;100.00;101337.78;4940771;28;20050;-81
2021/09/20 05:00:50;;;;;;;5.10;2.85;;;;;;;9.63;100.00;101338.66;4948874;28;20039;-81
2021/09/20 05:03:17;;;;;;;8.05;3.63;;;;;;;9.65;100.00;101329.84;4975217;28;20039;-81
2021/09/20 05:05:44;;;;;;;4.30;2.67;;;;;;;9.66;100.00;101334.22;4969248;28;20035;-81
2021/09/20 05:08:12;;;;;;;4.57;2.90;;;;;;;9.68;100.00;101331.63;4938984;28;20104;-81
2021/09/20 05:10:39;;;;;;;4.15;3.05;;;;;;;9.64;100.00;101332.50;4969961;28;20066;-81
2021/09/20 05:13:05;;;;;;;3.50;2.55;;;;;;;9.64;100.00;101336.00;4969496;28;20031;-81
2021/09/20 05:15:32;;;;;;;4.65;2.25;;;;;;;9.71;100.00;101332.47;4953285;28;20055;-81
2021/09/20 05:17:59;;;;;;;4.68;2.63;;;;;;;9.72;100.00;101328.94;4971905;28;20650;-81
2021/09/20 05:20:25;;;;;;;5.55;3.30;;;;;;;9.75;100.00;101330.66;4941315;28;20046;-81
2021/09/20 05:22:52;;;;;;;4.00;2.70;;;;;;;9.78;100.00;101333.31;4945083;28;20039;-80
2021/09/20 05:25:21;;;;;;;3.95;3.20;;;;;;;9.77;100.00;101334.19;4971493;28;20102;-81
2021/09/20 05:27:49;;;;;;;4.18;2.95;;;;;;;9.79;100.00;101332.41;4967924;28;20476;-81
2021/09/20 05:30:15;;;;;;;8.20;2.90;;;;;;;9.77;100.00;101334.19;4954200;28;20042;-83
2021/09/20 05:32:42;;;;;;;4.13;2.88;;;;;;;9.82;100.00;101332.38;4964971;28;20085;-82
2021/09/20 05:35:11;;;;;;;4.28;2.38;;;;;;;9.82;100.00;101340.28;4946224;28;20039;-82
2021/09/20 05:37:38;;;;;;;6.15;3.00;;;;;;;9.84;100.00;101333.28;4968914;28;20489;-82
2021/09/20 05:40:06;;;;;;;3.97;2.22;;;;;;;9.83;100.00;101339.41;4971610;28;20050;-82
2021/09/20 05:42:32;;;;;;;5.45;3.28;;;;;;;9.82;100.00;101333.25;4968415;28;20047;-82
2021/09/20 05:44:59;;;;;;;5.30;2.78;;;;;;;9.85;100.00;101333.25;4991489;28;20493;-81
2021/09/20 05:47:26;;;;;;;5.60;2.60;;;;;;;9.84;100.00;101338.56;4973894;28;20054;-81
2021/09/20 05:49:53;;;;;;;5.90;2.85;;;;;;;9.87;100.00;101339.38;4974081;28;20054;-82
2021/09/20 05:52:22;;;;;;;5.60;3.05;;;;;;;9.92;100.00;101342.00;4974416;28;20042;-82
2021/09/20 05:54:49;;;;;;;9.32;3.63;;;;;;;9.92;100.00;101346.38;4958272;28;20034;-82
2021/09/20 05:57:15;;;;;;;5.57;3.70;;;;;;;10.00;100.00;101342.81;4956179;28;20104;-82
2021/09/20 05:59:42;;;;;;;4.50;2.80;;;;;;;10.00;100.00;101348.09;4941332;28;20096;-81
2021/09/20 06:02:09;;;;;;;4.72;2.83;;;;;;;10.01;100.00;101349.88;4958159;28;21907;-83
2021/09/20 06:04:35;;;;;;;5.50;3.15;;;;;;;10.00;100.00;101352.50;4969880;28;20034;-81
2021/09/20 06:07:02;;;;;;;4.97;2.90;;;;;;;10.10;100.00;101344.50;5061735;23;20050;-82
2021/09/20 06:09:29;;;;;;;5.03;3.22;;;;;;;10.06;100.00;101353.31;5014916;28;20045;-82
2021/09/20 06:11:56;;;;;;;4.82;3.10;;;;;;;10.10;100.00;101356.84;5005729;28;20132;-82
2021/09/20 06:14:27;;;;;;;5.40;3.03;;;;;;;10.12;100.00;101370.91;5022614;28;20524;-80
2021/09/20 06:16:53;;;;;;;6.22;2.95;;;;;;;10.16;100.00;101369.97;5020521;28;20486;-80
2021/09/20 06:19:20;;;;;;;5.47;3.33;;;;;;;10.16;100.00;101364.69;5004903;28;20417;-82
2021/09/20 06:21:47;;;;;;;6.03;3.13;;;;;;;10.22;100.00;101364.69;4999996;28;20045;-80
2021/09/20 06:24:14;;;;;;;4.70;3.35;;;;;;;10.22;100.00;101361.13;5002277;28;20045;-80
2021/09/20 06:26:40;;;;;;;3.50;2.72;;;;;;;10.25;100.00;101369.06;5004047;28;20045;-82
2021/09/20 06:29:09;;;;;;;5.80;3.10;;;;;;;10.24;100.00;101364.66;5034981;28;20711;-84
2021/09/20 06:31:36;;;;;;;4.45;3.22;;;;;;;10.28;100.00;101367.28;5017113;28;20044;-81
2021/09/20 06:34:03;;;;;;;4.30;2.88;;;;;;;10.29;100.00;101362.88;5001855;28;20068;-80
2021/09/20 06:36:32;;;;;;;5.75;3.20;;;;;;;10.29;100.00;101370.81;5015286;28;20076;-80
2021/09/20 06:38:59;;;;;;;3.88;2.63;;;;;;;10.29;100.00;101362.88;5000333;28;20044;-80
2021/09/20 06:41:26;;;;;;;7.70;3.78;;;;;;;10.31;100.00;101366.38;5002768;28;20383;-81
2021/09/20 06:43:53;;;;;;;4.45;2.90;;;;;;;10.30;100.00;101373.44;5001288;28;20043;-80
2021/09/20 06:46:19;;;;;;;3.67;2.80;;;;;;;10.34;100.00;101369.00;5002160;28;20048;-81
2021/09/20 06:48:47;;;;;;;5.53;3.03;;;;;;;10.36;100.00;101370.75;5010673;28;20124;-82
2021/09/20 06:51:13;;;;;;;5.70;3.40;;;;;;;10.36;100.00;101368.09;4991146;28;20045;-84
2021/09/20 06:53:40;;;;;;;6.20;3.47;;;;;;;10.45;100.00;101374.19;5029302;28;20181;-83
2021/09/20 06:56:07;;;;;;;5.78;3.65;;;;;;;10.54;100.00;101356.50;5025769;28;20060;-82
2021/09/20 06:58:35;;;;;;;5.07;3.30;;;;;;;10.58;100.00;101370.53;5000569;28;20044;-81
2021/09/20 07:01:01;;;;;;;4.53;3.03;;;;;;;10.64;100.00;101371.38;5002004;28;20063;-81
2021/09/20 07:03:28;;;;;;;4.57;2.60;;;;;;;10.71;100.00;101369.56;4995845;28;20049;-80
2021/09/20 07:05:55;;;;;;;5.85;2.88;;;;;;;10.79;100.00;101374.78;5011014;28;20052;-81
2021/09/20 07:08:22;;;;;;;5.57;3.20;;;;;;;10.82;100.00;101374.72;5016894;28;20037;-80
2021/09/20 07:10:49;;;;;;;4.75;3.05;;;;;;;10.92;100.00;101379.88;5016480;28;20098;-81
2021/09/20 07:13:15;;;;;;;5.28;3.28;;;;;;;10.92;100.00;101376.38;5012286;28;20040;-82
2021/09/20 07:15:42;;;;;;;4.93;3.60;;;;;;;11.00;100.00;101382.47;5016120;28;20049;-80
2021/09/20 07:18:09;;;;;;;5.60;3.22;;;;;;;11.06;100.00;101374.47;4998904;28;20044;-78
2021/09/20 07:20:35;;;;;;;4.85;3.35;;;;;;;11.12;100.00;101377.06;4999309;28;20041;-81
2021/09/20 07:23:02;;;;;;;5.35;2.90;;;;;;;11.10;100.00;101389.44;5006503;28;20095;-82
2021/09/20 07:25:29;;;;;;;5.95;3.13;;;;;;;11.20;100.00;101387.53;5000899;28;20428;-80
2021/09/20 07:27:55;;;;;;;4.80;2.83;;;;;;;11.30;100.00;101381.25;5015990;28;20067;-80
2021/09/20 07:30:22;;;;;;;5.45;3.42;;;;;;;11.35;100.00;101386.47;5016710;28;20045;-81
2021/09/20 07:32:50;;;;;;;6.80;3.97;;;;;;;11.43;100.00;101384.59;5032415;28;20044;-79
2021/09/20 07:35:18;;;;;;;5.40;3.88;;;;;;;11.59;99.30;101390.59;5019191;28;20509;-79
2021/09/20 07:37:48;;;;;;;6.20;3.17;;;;;;;11.64;97.83;101394.94;5012411;28;20084;-85
2021/09/20 07:40:15;;;;;;;3.88;2.80;;;;;;;11.69;97.42;101393.13;5016129;28;20119;-81
2021/09/20 07:42:43;;;;;;;4.32;3.20;;;;;;;11.68;95.53;101388.69;5030842;28;20056;-81
2021/09/20 07:45:11;;;;;;;5.25;3.28;;;;;;;11.88;97.03;101390.25;5014462;28;20490;-80
2021/09/20 07:47:38;;;;;;;4.30;3.13;;;;;;;11.93;97.68;101388.38;5024770;28;20069;-80
2021/09/20 07:50:07;;;;;;;3.88;3.28;;;;;;;11.98;98.53;101402.44;4990819;28;20051;-80
2021/09/20 07:52:34;;;;;;;5.00;3.15;;;;;;;12.06;97.51;101390.84;4985008;28;20044;-83
2021/09/20 07:55:01;;;;;;;4.78;3.38;;;;;;;12.25;93.20;101395.84;4994359;28;20040;-81
2021/09/20 07:57:28;;;;;;;3.13;2.38;;;;;;;12.26;93.27;101398.47;5016087;28;20052;-81
2021/09/20 07:59:54;;;;;;;5.60;3.58;;;;;;;12.46;90.75;101398.19;4994005;28;20040;-83
2021/09/20 08:02:21;;;;;;;4.93;3.40;;;;;;;12.50;93.24;101406.94;4995271;28;20583;-84
2021/09/20 08:04:48;;;;;;;5.03;2.88;;;;;;;12.56;93.49;101405.06;5000008;28;20069;-84
2021/09/20 08:07:15;;;;;;;4.43;2.58;;;;;;;12.62;92.08;101404.09;4998518;28;20051;-85
2021/09/20 08:09:43;;;;;;;4.90;3.05;;;;;;;12.77;91.40;101401.16;4998734;28;20048;-84
2021/09/20 08:12:11;;;;;;;4.53;2.75;;;;;;;12.90;88.41;101400.03;5014694;28;20048;-82
2021/09/20 08:14:37;;;;;;;5.95;3.25;;;;;;;12.93;86.71;101407.94;5017651;28;20043;-84
2021/09/20 08:17:04;;;;;;;4.82;3.30;;;;;;;12.99;86.63;101409.63;4999454;28;20037;-84
2021/09/20 08:19:31;;;;;;;5.82;2.55;;;;;;;13.08;86.71;101413.88;5011279;28;20045;-85
2021/09/20 08:21:57;;;;;;;3.72;2.80;;;;;;;13.21;84.80;101407.47;5005972;28;20045;-84
2021/09/20 08:24:24;;;;;;;5.65;2.67;;;;;;;13.28;83.96;101413.50;5005501;28;20044;-84
2021/09/20 08:26:52;;;;;;;4.93;2.60;;;;;;;13.46;80.74;101414.03;5011486;28;20048;-84
2021/09/20 08:29:19;;;;;;;3.47;2.70;;;;;;;13.50;82.00;101413.06;4979965;28;20049;-84
2021/09/20 08:31:45;;;;;;;3.80;2.45;;;;;;;13.57;83.96;101405.84;4987591;28;20049;-84
2021/09/20 08:34:12;;;;;;;6.60;3.05;;;;;;;13.74;80.58;101405.50;4999647;28;20102;-82
2021/09/20 08:36:39;;;;;;;5.07;3.00;;;;;;;13.84;80.28;101409.69;5000215;28;20052;-84
2021/09/20 08:39:06;;;;;;;4.30;2.35;;;;;;;13.90;78.58;101412.22;4997417;28;20056;-84
2021/09/20 08:41:33;;;;;;;4.30;2.78;;;;;;;14.02;79.75;101405.75;5013721;28;20534;-83
2021/09/20 08:44:00;;;;;;;3.40;2.63;;;;;;;14.16;77.85;101405.44;5008501;28;20068;-85
2021/09/20 08:46:28;;;;;;;5.68;2.85;;;;;;;14.27;79.47;101403.38;5001319;28;20045;-85
2021/09/20 08:48:58;;;;;;;4.95;2.67;;;;;;;14.35;80.01;101412.06;5031421;28;20041;-90
2021/09/20 08:51:24;;;;;;;3.50;2.63;;;;;;;14.62;75.98;101410.53;5016601;28;20525;-87
2021/09/20 08:53:51;;;;;;;4.30;2.40;;;;;;;14.66;73.29;101406.91;4996799;28;20045;-84
2021/09/20 08:56:18;;;;;;;4.47;2.50;;;;;;;14.67;72.77;101413.09;5007441;28;20049;-82
2021/09/20 08:58:45;;;;;;;4.40;2.67;;;;;;;14.71;68.63;101412.06;4995867;28;20471;-81
2021/09/20 09:01:12;;;;;;;2.90;2.45;;;;;;;14.96;66.21;101407.00;4995813;28;20453;-83
2021/09/20 09:03:39;;;;;;;2.50;2.17;;;;;;;14.91;67.72;101401.81;5020863;28;20072;-84
2021/09/20 09:06:06;;;;;;;4.28;2.50;;;;;;;14.85;66.08;101405.50;4985652;28;20044;-85
2021/09/20 09:08:39;;;;;;;2.88;2.00;;;;;;;14.82;67.33;101405.59;4996008;28;20037;-83
2021/09/20 09:11:17;;;;;;;3.72;2.20;;;;;;;15.18;62.93;101409.03;5020480;28;20064;-84
2021/09/20 09:13:46;;;;;;;2.20;1.90;;;;;;;15.17;62.79;101409.09;5017233;28;20207;-83
2021/09/20 09:16:19;;;;;;;4.05;2.10;;;;;;;15.12;64.30;101411.88;5029342;28;20048;-82
2021/09/20 09:19:15;;;;;;;3.60;2.10;;;;;;;15.19;65.78;101413.44;5003699;28;20487;-84
2021/09/20 09:21:44;;;;;;;3.10;2.10;;;;;;;15.30;64.62;101418.50;4998720;28;20045;-85
2021/09/20 09:24:14;;;;;;;4.50;1.90;;;;;;;15.34;65.72;101419.25;5025211;28;20037;-83
2021/09/20 09:26:55;;;;;;;3.38;2.25;;;;;;;15.26;62.17;101421.28;4999150;28;20068;-84
2021/09/20 09:29:23;;;;;;;3.47;2.20;;;;;;;15.28;64.02;101424.75;5000056;28;20045;-86
2021/09/20 09:31:52;;;;;;;3.00;1.98;;;;;;;15.28;67.07;101427.41;4995722;28;20063;-84
2021/09/20 09:34:29;;;;;;;2.72;2.00;;;;;;;15.38;62.70;101424.44;5015501;28;20060;-83
2021/09/20 09:37:10;;;;;;;4.55;2.05;;;;;;;15.31;61.62;101432.69;5017564;28;20045;-82
2021/09/20 09:39:37;;;;;;;4.55;2.03;;;;;;;14.93;62.45;101427.44;4994723;28;20048;-84
2021/09/20 09:42:04;;;;;;;2.17;1.80;;;;;;;15.22;63.29;101428.47;4998326;28;20484;-83
2021/09/20 09:44:34;;;;;;;3.78;2.03;;;;;;;15.48;61.86;101433.06;4992164;28;20041;-85
2021/09/20 09:47:02;;;;;;;2.33;1.80;;;;;;;15.37;60.50;101435.16;5020876;28;20073;-82
2021/09/20 09:49:29;;;;;;;2.75;1.73;;;;;;;15.34;64.09;101438.78;5014231;28;20485;-86
2021/09/20 09:52:02;;;;;;;3.53;1.90;;;;;;;15.32;62.90;101437.09;5009797;28;20091;-86
2021/09/20 09:54:37;;;;;;;3.20;2.10;;;;;;;15.24;62.29;101441.75;5042926;28;20526;-85
2021/09/20 09:57:19;;;;;;;3.58;1.98;;;;;;;15.02;61.39;101446.75;4994556;28;20143;-83
2021/09/20 10:00:19;;;;;;;2.70;2.20;;;;;;;15.01;63.71;101437.03;5034450;28;20116;-84
2021/09/20 10:02:50;;;;;;;2.97;1.70;;;;;;;14.96;67.24;101441.59;5031423;28;20414;-83
2021/09/20 10:05:22;;;;;;;3.15;1.90;;;;;;;14.81;66.66;101445.53;5020045;28;20041;-86
2021/09/20 10:07:53;;;;;;;4.03;1.90;;;;;;;15.32;66.44;101442.41;5010850;28;20044;-82
2021/09/20 10:10:23;;;;;;;2.55;1.80;;;;;;;15.16;61.94;101440.16;5012225;28;20124;-85
2021/09/20 10:12:53;;;;;;;2.53;1.83;;;;;;;15.48;60.16;101433.94;5015689;28;20045;-82
2021/09/20 10:15:21;;;;;;;2.28;1.80;;;;;;;15.90;58.52;101436.31;4999803;28;20101;-85
2021/09/20 10:17:48;;;;;;;2.10;1.73;;;;;;;16.20;58.33;101430.94;5009789;28;20041;-84
2021/09/20 10:20:18;;;;;;;3.03;1.80;;;;;;;16.40;55.65;101430.31;5004277;28;20513;-84
2021/09/20 10:22:45;;;;;;;2.20;1.75;;;;;;;16.62;57.68;101426.00;5004075;28;20052;-85
2021/09/20 10:25:16;;;;;;;5.50;2.15;;;;;;;16.45;55.34;101426.56;5030657;28;20037;-88
2021/09/20 10:27:42;;;;;;;2.63;1.80;;;;;;;16.58;54.68;101427.91;5030829;28;20099;-84
2021/09/20 10:30:11;;;;;;;4.32;2.03;;;;;;;16.49;53.48;101424.69;5021382;28;20048;-85
2021/09/20 10:32:41;;;;;;;2.40;1.63;;;;;;;16.44;54.66;101422.16;5014169;28;20199;-86
2021/09/20 10:35:25;;;;;;;2.65;1.80;;;;;;;16.12;56.15;101433.84;5018130;28;20052;-84
2021/09/20 10:37:58;;;;;;;2.95;2.00;;;;;;;15.71;57.97;101435.09;5016836;28;20042;-84
2021/09/20 10:40:25;;;;;;;1.85;1.40;;;;;;;15.73;59.04;101441.25;4990444;28;20048;-85
2021/09/20 10:42:57;;;;;;;3.78;1.90;;;;;;;15.67;59.53;101441.44;5002690;28;20045;-84
2021/09/20 10:45:37;;;;;;;4.40;1.90;;;;;;;15.58;63.03;101439.88;5014351;28;20040;-84
2021/09/20 10:48:17;;;;;;;2.70;1.67;;;;;;;15.52;59.68;101442.72;5031795;28;20056;-84
2021/09/20 10:50:59;;;;;;;1.73;1.40;;;;;;;15.45;63.92;101441.13;5018190;28;20452;-86
2021/09/20 10:53:34;;;;;;;2.97;1.90;;;;;;;15.39;63.03;101446.66;4989314;28;20108;-84
2021/09/20 10:56:06;;;;;;;3.17;1.70;;;;;;;15.32;63.68;101445.06;5017165;28;20100;-86
2021/09/20 10:58:51;;;;;;;2.38;1.77;;;;;;;15.40;61.50;101449.25;5033758;28;20059;-87
2021/09/20 11:01:19;;;;;;;2.20;1.60;;;;;;;15.40;62.80;101446.59;5011132;28;20073;-85
2021/09/20 11:03:49;;;;;;;3.25;1.55;;;;;;;15.41;64.72;101450.13;5020737;28;20462;-83
2021/09/20 11:06:25;;;;;;;2.65;1.70;;;;;;;15.49;59.22;101448.13;5017676;28;20133;-85
2021/09/20 11:08:57;;;;;;;3.10;1.60;;;;;;;15.41;61.41;101444.81;4997976;28;20136;-84
2021/09/20 11:11:36;;;;;;;2.08;1.20;;;;;;;15.53;61.20;101439.13;5003973;28;20056;-86
2021/09/20 11:14:11;;;;;;;2.35;1.40;;;;;;;15.49;57.94;101441.00;5021299;28;20052;-85
2021/09/20 11:16:50;;;;;;;1.95;1.48;;;;;;;15.76;56.92;101427.84;5021141;28;20049;-85
2021/09/20 11:19:26;;;;;;;3.28;1.77;;;;;;;15.58;59.66;101436.34;5019528;28;20052;-86
2021/09/20 11:22:11;;;;;;;1.90;1.45;;;;;;;15.60;56.01;101435.38;5001303;28;20046;-84
2021/09/20 11:24:42;;;;;;;2.47;1.67;;;;;;;15.67;57.42;101439.66;5020362;28;20040;-83
2021/09/20 11:27:23;;;;;;;2.85;1.83;;;;;;;15.48;58.12;101436.59;5029561;28;20505;-83
2021/09/20 11:29:52;;;;;;;2.25;1.77;;;;;;;15.58;57.48;101436.34;5014865;28;20057;-86